• Join FlightAware (Why Join?)
  • Login
  • US Flag 
06:18PM EST


 

Airport Tracker/Info


-or-


 

Live Flight TrackerFlight Track Log ✈ SWA1034 ✈ 09-Nov-2013 ✈ KLAX - KRNO

Flight Track Log - Related Links

Times and Time Zones

All times are in EST time to prevent confusion due to time zone crossing. See the SWA1034 flight status page for this flight to view local times or setup timezone preferences in your user account.

Time Position Orientation Groundspeed Altitude Reporting Facility
EST Latitude Longitude Course Direction KTS MPH feet Rate Location/Type
11:42PM 33.9470 -118.4320 263° West 149 171 900  Level FlightAware
11:42PM 33.9450 -118.4510 263° West 189 217 1,400 1,980 Climbing FlightAware
11:43PM 33.9430 -118.4760 264° West 211 243 2,400 2,640 Climbing FlightAware
11:43PM 33.9510 -118.5270 281° West 257 296 4,200 2,760 Climbing FlightAware
11:44PM 33.9580 -118.5550 287° West 276 318 5,100 3,180 Climbing FlightAware
11:44PM 33.9660 -118.5930 284° West 276 318 6,600 2,220 Climbing FlightAware
11:44PM 33.9750 -118.6290 287° West 283 326 6,900 840 Climbing FlightAware
11:45PM 34.0000 -118.6660 309° West 289 333 7,400 1,980 Climbing FlightAware
11:45PM 34.0310 -118.6920 325° Northwest 291 335 8,900 2,160 Climbing FlightAware
11:46PM 34.0490 -118.6950 352° North 297 342 8,900  Level FlightAware
11:46PM 34.1000 -118.6670 24° Northeast 297 342 8,900 2,040 Level FlightAware
11:47PM 34.1690 -118.6260 26° Northeast 309 356 12,200 3,060 Climbing FlightAware
11:48PM 34.2250 -118.6130 11° North 321 369 13,800 1,320 Climbing FlightAware
11:48PM 34.2790 -118.6150 358° North 320 368 13,900 120 Climbing FlightAware
11:49PM 34.3770 -118.6170 359° North 354 407 14,000 1,740 Climbing FlightAware
11:50PM 34.4660 -118.6150 North 354 407 17,400 3,540 Climbing FlightAware
11:51PM 34.5380 -118.6120 North 374 430 19,700 3,180 Climbing FlightAware
11:52PM 34.6030 -118.6240 351° North 386 444 21,700 3,180 Climbing FlightAware
11:52PM 34.6850 -118.6400 351° North 399 459 24,100 3,000 Climbing FlightAware
11:53PM 34.7830 -118.6590 351° North 413 475 26,500 2,640 Climbing FlightAware
11:54PM 34.8750 -118.6780 350° North 426 490 28,500 2,160 Climbing FlightAware
11:55PM 34.9700 -118.6960 351° North 438 504 30,000 900 Climbing FlightAware
11:56PM 35.0740 -118.7170 351° North 439 505 30,000  Level FlightAware
11:57PM 35.1720 -118.7370 351° North 441 507 30,000  Level FlightAware
11:57PM 35.2220 -118.7460 352° North 441 507 30,000  Level FlightAware
11:58PM 35.3270 -118.7680 350° North 439 505 30,000  Level FlightAware
11:58PM 35.3740 -118.7770 351° North 440 506 30,000 1,260 Level FlightAware
11:59PM 35.4980 -118.8020 351° North 455 524 31,800 1,980 Climbing FlightAware
12:00AM 35.5890 -118.8200 351° North 452 520 33,500 2,340 Climbing FlightAware
12:01AM 35.6910 -118.8410 351° North 447 514 35,500 2,100 Climbing FlightAware
12:02AM 35.7890 -118.8600 351° North 446 513 37,000 1,860 Climbing FlightAware
12:03AM 35.8940 -118.8820 350° North 441 507 38,600 1,800 Climbing FlightAware
12:03AM 35.9820 -118.8990 351° North 434 499 39,900 960 Climbing FlightAware
12:04AM 36.0620 -118.9150 351° North 436 502 40,000 60 Climbing FlightAware
12:05AM 36.1760 -118.9380 351° North 437 503 40,000  Level FlightAware
12:06AM 36.2710 -118.9580 350° North 437 503 40,000  Level FlightAware
12:06AM 36.3620 -118.9770 350° North 436 502 40,000  Level FlightAware
12:07AM 36.4390 -118.9930 351° North 437 503 40,000  Level FlightAware
12:08AM 36.5410 -119.0140 351° North 437 503 40,000  Level FlightAware
12:09AM 36.6740 -119.0410 351° North 436 502 40,000  Level FlightAware
12:10AM 36.7450 -119.0560 350° North 436 502 40,000  Level FlightAware
12:10AM 36.8350 -119.0750 350° North 436 502 40,000  Level FlightAware
12:11AM 36.8890 -119.0860 351° North 436 502 40,000 -540 Level FlightAware
12:12AM 36.9930 -119.1080 350° North 434 499 39,300 -960 Descending FlightAware
12:13AM 37.1090 -119.1320 351° North 430 495 38,300 -1,020 Descending FlightAware
12:14AM 37.2180 -119.1540 351° North 433 498 37,400 -960 Descending FlightAware
12:14AM 37.3130 -119.1740 350° North 434 499 36,700 -900 Descending FlightAware
12:15AM 37.3900 -119.1910 350° North 437 503 36,100 -960 Descending FlightAware
12:16AM 37.4890 -119.2110 351° North 439 505 35,300 -1,020 Descending FlightAware
12:16AM 37.5370 -119.2210 351° North 441 507 34,900 -1,080 Descending FlightAware
12:17AM 37.6420 -119.2440 350° North 442 509 34,000 -1,020 Descending FlightAware
12:18AM 37.7390 -119.2650 350° North 432 497 33,200 -1,080 Descending FlightAware
12:18AM 37.8010 -119.2780 351° North 428 493 32,600 -1,080 Descending FlightAware
12:19AM 37.9090 -119.3010 350° North 422 486 31,700 -1,020 Descending FlightAware
12:20AM 38.0090 -119.3230 350° North 420 483 30,800 -1,080 Descending FlightAware
12:21AM 38.0770 -119.3370 351° North 415 478 30,200 -1,020 Descending FlightAware
12:22AM 38.1740 -119.3580 350° North 415 478 29,300 -1,020 Descending FlightAware
12:23AM 38.3130 -119.3880 350° North 406 467 28,100 -1,020 Descending FlightAware
12:24AM 38.3940 -119.4050 351° North 399 459 27,400 -1,020 Descending FlightAware
12:24AM 38.4640 -119.4210 350° North 391 450 26,700 -1,080 Descending FlightAware
12:25AM 38.5150 -119.4320 350° North 389 448 26,200 -1,020 Descending FlightAware
12:26AM 38.6060 -119.4520 350° North 386 444 25,400 -1,020 Descending FlightAware
12:26AM 38.6840 -119.4690 350° North 383 441 24,600 -840 Descending FlightAware
12:27AM 38.7540 -119.4840 351° North 380 437 24,100 -360 Descending FlightAware
12:28AM 38.8070 -119.4960 350° North 380 437 24,100  Level FlightAware
12:29AM 38.8780 -119.5120 350° North 380 437 24,100  Level FlightAware
12:30AM 38.9660 -119.5320 350° North 380 437 24,100  Level FlightAware
12:30AM 39.0370 -119.5480 350° North 380 437 24,100 -3,960 Level FlightAware
12:33AM 39.3200 -119.5950 353° North 335 386 10,600 -4,500 Descending FlightAware
12:33AM 39.3460 -119.6000 352° North 323 372 10,400 -540 Descending FlightAware
12:34AM 39.4260 -119.6150 352° North 277 319 9,900 -420 Descending FlightAware
12:35AM 39.4550 -119.6210 351° North 277 319 9,900 -840 Level FlightAware
12:35AM 39.4860 -119.6260 353° North 257 296 9,300 -1,080 Descending FlightAware
12:36AM 39.5130 -119.6310 352° North 245 282 9,100 -720 Descending FlightAware
12:36AM 39.5430 -119.6370 351° North 232 267 8,700 -960 Descending FlightAware
12:36AM 39.5650 -119.6410 352° North 218 251 8,300 -1,080 Descending FlightAware
12:37AM 39.5830 -119.6470 346° North 210 242 7,900 -1,200 Descending FlightAware
12:37AM 39.6080 -119.6790 315° West 196 226 7,200 -1,320 Descending FlightAware
12:38AM 39.6120 -119.7020 283° West 192 221 6,800 -1,020 Descending FlightAware
12:38AM 39.6030 -119.7400 253° West 178 205 6,300 -960 Descending FlightAware
12:39AM 39.5920 -119.7560 228° Southwest 163 188 5,900 -1,080 Descending FlightAware
12:39AM 39.5750 -119.7660 204° Southwest 145 167 5,500 -900 Descending FlightAware
12:40AM 39.5520 -119.7690 186° South 136 157 5,000 -840 Descending FlightAware
12:40AM 39.5310 -119.7690 180° South 140 161 4,600 -720 Descending FlightAware
12:40AM 39.5260 -119.7690 180° South 139 160 4,500 -180 Descending FlightAware
12:41AM 39.5120 -119.7700 183° South 139 160 4,500  Level FlightAware
12:47AM 39.4991 -119.7681 237° Southwest  Level Estimated
12:48AM 39.4991 -119.7681 237° Southwest  Level Estimated